createdAt,value
2019-01-10T00:01:25.477Z,1.62
2019-01-10T00:03:55.696Z,1.58
2019-01-10T00:06:25.888Z,1.54
2019-01-10T00:08:56.016Z,1.50
2019-01-10T00:11:26.606Z,1.46
2019-01-10T00:13:56.721Z,1.42
2019-01-10T00:16:26.923Z,1.37
2019-01-10T00:18:57.253Z,1.31
2019-01-10T00:21:27.445Z,1.27
2019-01-10T00:23:57.571Z,1.21
2019-01-10T00:26:27.860Z,1.18
2019-01-10T00:28:58.075Z,1.16
2019-01-10T00:31:28.281Z,1.13
2019-01-10T00:33:58.351Z,1.12
2019-01-10T00:36:28.531Z,1.11
2019-01-10T00:38:58.733Z,1.06
2019-01-10T00:41:28.855Z,1.06
2019-01-10T00:43:58.908Z,1.03
2019-01-10T00:46:29.002Z,1.00
2019-01-10T00:48:59.127Z,0.97
2019-01-10T00:51:29.310Z,0.93
2019-01-10T00:53:59.514Z,0.89
2019-01-10T00:56:29.720Z,0.89
2019-01-10T00:59:00.024Z,0.87
2019-01-10T01:01:30.211Z,0.87
2019-01-10T01:04:00.416Z,0.86
2019-01-10T01:06:30.599Z,0.86
2019-01-10T01:09:00.808Z,0.85
2019-01-10T01:11:30.958Z,0.86
2019-01-10T01:14:01.138Z,0.89
2019-01-10T01:16:31.334Z,0.93
2019-01-10T01:19:01.462Z,0.97
2019-01-10T01:21:31.669Z,1.01
2019-01-10T01:24:01.855Z,1.03
2019-01-10T01:26:31.977Z,1.07
2019-01-10T01:29:02.158Z,1.12
2019-01-10T01:31:32.358Z,1.13
2019-01-10T01:34:02.414Z,1.18
2019-01-10T01:36:32.544Z,1.22
2019-01-10T01:39:02.611Z,1.25
2019-01-10T01:41:32.737Z,1.28
2019-01-10T01:44:02.941Z,1.33
2019-01-10T01:46:43.901Z,1.35
2019-01-10T01:49:22.940Z,1.35
2019-01-10T01:51:53.094Z,1.39
2019-01-10T01:54:23.367Z,1.41
2019-01-10T01:56:53.545Z,1.46
2019-01-10T01:59:23.682Z,1.49
2019-01-10T02:01:54.146Z,1.52
2019-01-10T02:04:24.273Z,1.54
2019-01-10T02:06:54.389Z,1.57
2019-01-10T02:09:24.517Z,1.59
2019-01-10T02:11:54.764Z,1.61
2019-01-10T02:14:24.938Z,1.65
2019-01-10T02:16:55.062Z,1.67
2019-01-10T02:19:25.177Z,1.71
2019-01-10T02:21:55.456Z,1.75
2019-01-10T02:24:25.724Z,1.76
2019-01-10T02:26:55.852Z,1.78
2019-01-10T02:29:26.108Z,1.80
2019-01-10T02:31:56.307Z,1.81
2019-01-10T02:34:26.425Z,1.80
2019-01-10T02:36:56.611Z,1.82
2019-01-10T02:39:26.836Z,1.84
2019-01-10T02:41:57.010Z,1.84
2019-01-10T02:44:27.227Z,1.84
2019-01-10T02:46:57.377Z,1.87
2019-01-10T02:49:27.428Z,1.88
2019-01-10T02:51:57.602Z,1.88
2019-01-10T02:54:27.879Z,1.88
2019-01-10T02:56:58.083Z,1.87
2019-01-10T02:59:28.260Z,1.85
2019-01-10T03:01:58.387Z,1.85
2019-01-10T03:04:33.486Z,1.87
2019-01-10T03:07:01.151Z,1.86
2019-01-10T03:09:31.348Z,1.87
2019-01-10T03:12:01.485Z,1.88
2019-01-10T03:14:31.698Z,1.91
2019-01-10T03:17:01.893Z,1.92
2019-01-10T03:19:32.087Z,1.93
2019-01-10T03:22:02.359Z,1.91
2019-01-10T03:24:32.497Z,1.92
2019-01-10T03:27:02.758Z,1.94
2019-01-10T03:29:32.888Z,1.95
2019-01-10T03:32:03.180Z,1.96
2019-01-10T03:34:34.993Z,1.95
2019-01-10T03:37:05.172Z,1.96
2019-01-10T03:39:35.312Z,1.97
2019-01-10T03:42:06.758Z,1.97
2019-01-10T03:44:36.836Z,2.00
2019-01-10T03:47:07.050Z,2.00
2019-01-10T03:49:37.219Z,2.01
2019-01-10T03:52:07.460Z,2.01
2019-01-10T03:54:37.596Z,2.04
2019-01-10T03:57:07.718Z,2.05
2019-01-10T03:59:37.926Z,2.07
2019-01-10T04:02:08.122Z,2.09
2019-01-10T04:04:38.332Z,2.10
2019-01-10T04:07:08.530Z,2.07
2019-01-10T04:09:38.741Z,2.12
2019-01-10T04:12:08.954Z,2.12
2019-01-10T04:14:39.407Z,2.13
2019-01-10T04:17:09.608Z,2.12
2019-01-10T04:19:39.840Z,2.11
2019-01-10T04:22:10.109Z,2.14
2019-01-10T04:24:40.263Z,2.13
2019-01-10T04:27:13.460Z,2.14
2019-01-10T04:29:43.580Z,2.14
2019-01-10T04:32:13.725Z,2.14
2019-01-10T04:34:43.788Z,2.13
2019-01-10T04:37:13.912Z,2.11
2019-01-10T04:39:44.029Z,2.11
2019-01-10T04:42:14.246Z,2.08
2019-01-10T04:44:44.451Z,2.08
2019-01-10T04:47:14.590Z,2.07
2019-01-10T04:49:44.756Z,2.05
2019-01-10T04:52:17.850Z,2.04
2019-01-10T04:54:47.900Z,2.03
2019-01-10T04:57:18.208Z,2.03
2019-01-10T04:59:48.258Z,2.02
2019-01-10T05:02:18.795Z,2.01
2019-01-10T05:04:49.020Z,2.03
2019-01-10T05:07:19.285Z,2.04
2019-01-10T05:09:49.468Z,2.05
2019-01-10T05:12:19.515Z,2.06
2019-01-10T05:14:49.637Z,2.05
2019-01-10T05:17:19.832Z,2.10
2019-01-10T05:19:49.955Z,2.11
2019-01-10T05:22:20.130Z,2.13
2019-01-10T05:24:50.245Z,2.15
2019-01-10T05:27:20.383Z,2.17
2019-01-10T05:29:50.520Z,2.18
2019-01-10T05:32:20.707Z,2.20
2019-01-10T05:34:50.752Z,2.21
2019-01-10T05:37:20.962Z,2.22
2019-01-10T05:39:50.989Z,2.20
2019-01-10T05:42:21.060Z,2.23
2019-01-10T05:44:51.193Z,2.23
2019-01-10T05:47:21.428Z,2.24
2019-01-10T05:49:51.466Z,2.25
2019-01-10T05:52:21.674Z,2.27
2019-01-10T05:54:51.758Z,2.26
2019-01-10T05:57:21.866Z,2.27
2019-01-10T05:59:52.006Z,2.28
2019-01-10T06:02:22.034Z,2.30
2019-01-10T06:04:52.163Z,2.34
2019-01-10T06:07:22.292Z,2.33
2019-01-10T06:09:52.350Z,2.34
2019-01-10T06:12:22.463Z,2.35
2019-01-10T06:14:54.199Z,2.36
2019-01-10T06:17:24.322Z,2.38
2019-01-10T06:19:54.503Z,2.40
2019-01-10T06:22:24.702Z,2.41
2019-01-10T06:24:54.820Z,2.41
2019-01-10T06:27:25.007Z,2.42
2019-01-10T06:29:55.283Z,2.41
2019-01-10T06:32:25.494Z,2.42
2019-01-10T06:34:55.712Z,2.43
2019-01-10T06:37:25.853Z,2.43
2019-01-10T06:39:55.990Z,2.44
2019-01-10T06:42:26.188Z,2.44
2019-01-10T06:44:56.243Z,2.46
2019-01-10T06:47:26.451Z,2.45
2019-01-10T06:49:56.510Z,2.44
2019-01-10T06:52:26.744Z,2.46
2019-01-10T06:54:56.956Z,2.48
2019-01-10T06:57:27.010Z,2.49
2019-01-10T06:59:57.144Z,2.52
2019-01-10T07:02:27.430Z,2.53
2019-01-10T07:04:57.555Z,2.54
2019-01-10T07:07:27.693Z,2.56
2019-01-10T07:09:57.879Z,2.57
2019-01-10T07:12:28.112Z,2.58
2019-01-10T07:14:58.245Z,2.58
2019-01-10T07:17:28.383Z,2.58
2019-01-10T07:19:58.437Z,2.57
2019-01-10T07:22:28.509Z,2.58
2019-01-10T07:24:58.743Z,2.58
2019-01-10T07:27:28.948Z,2.59
2019-01-10T07:29:59.737Z,2.58
2019-01-10T07:32:30.081Z,2.60
2019-01-10T07:35:19.025Z,2.60
2019-01-10T07:37:57.508Z,2.60
2019-01-10T07:40:28.496Z,2.62
2019-01-10T07:42:58.950Z,2.62
2019-01-10T07:45:31.917Z,2.65
2019-01-10T07:48:02.100Z,2.66
2019-01-10T07:50:37.652Z,2.67
2019-01-10T07:53:09.674Z,2.70
2019-01-10T07:55:40.499Z,2.71
2019-01-10T07:58:10.719Z,2.72
2019-01-10T08:00:40.898Z,2.71
2019-01-10T08:03:11.164Z,2.75
2019-01-10T08:05:41.349Z,2.76
2019-01-10T08:08:11.485Z,2.78
2019-01-10T08:10:41.786Z,2.80
2019-01-10T08:13:12.129Z,2.83
2019-01-10T08:15:42.323Z,2.86
2019-01-10T08:18:12.522Z,2.88
2019-01-10T08:20:42.808Z,2.91
2019-01-10T08:23:12.990Z,2.95
2019-01-10T08:25:43.096Z,2.97
2019-01-10T08:28:13.362Z,3.02
2019-01-10T08:30:45.016Z,3.05
2019-01-10T08:33:15.134Z,3.09
2019-01-10T08:35:45.395Z,3.12
2019-01-10T08:38:15.629Z,3.15
2019-01-10T08:40:45.806Z,3.20
2019-01-10T08:43:16.010Z,3.23
2019-01-10T08:45:46.146Z,3.26
2019-01-10T08:48:16.213Z,3.31
2019-01-10T08:50:46.403Z,3.35
2019-01-10T08:53:16.650Z,3.37
2019-01-10T08:55:46.870Z,3.44
2019-01-10T08:58:16.992Z,3.48
2019-01-10T09:00:47.220Z,3.49
2019-01-10T09:03:17.423Z,3.50
2019-01-10T09:05:47.638Z,3.53
2019-01-10T09:08:17.905Z,3.57
2019-01-10T09:10:48.130Z,3.59
2019-01-10T09:13:18.184Z,3.61
2019-01-10T09:15:48.374Z,3.64
2019-01-10T09:18:18.696Z,3.68
2019-01-10T09:20:48.903Z,3.73
2019-01-10T09:23:19.026Z,3.76
2019-01-10T09:25:49.230Z,3.80
2019-01-10T09:28:19.417Z,3.84
2019-01-10T09:30:49.635Z,3.85
2019-01-10T09:33:19.964Z,3.87
2019-01-10T09:35:50.143Z,3.90
2019-01-10T09:38:20.385Z,3.93
2019-01-10T09:40:50.582Z,3.96
2019-01-10T09:43:20.722Z,3.99
2019-01-10T09:45:50.863Z,4.02
2019-01-10T09:48:20.999Z,4.05
2019-01-10T09:50:51.505Z,4.08
2019-01-10T09:53:21.688Z,4.08
2019-01-10T09:55:51.880Z,4.11
2019-01-10T09:58:22.023Z,4.11
2019-01-10T10:00:52.321Z,4.14
2019-01-10T10:03:22.441Z,4.16
2019-01-10T10:05:52.559Z,4.17
2019-01-10T10:08:22.677Z,4.16
2019-01-10T10:10:52.804Z,4.15
2019-01-10T10:13:23.017Z,4.15
2019-01-10T10:15:53.148Z,4.15
2019-01-10T10:18:23.360Z,4.17
2019-01-10T10:20:53.618Z,4.18
2019-01-10T10:23:26.989Z,4.22
2019-01-10T10:25:55.720Z,4.25
2019-01-10T10:28:25.928Z,4.28
2019-01-10T10:30:56.128Z,4.31
2019-01-10T10:33:26.178Z,4.35
2019-01-10T10:35:56.390Z,4.39
2019-01-10T10:38:26.649Z,4.44
2019-01-10T10:40:56.871Z,4.45
2019-01-10T10:43:26.993Z,4.47
2019-01-10T10:46:01.632Z,4.50
2019-01-10T10:48:29.070Z,4.56
2019-01-10T10:50:59.267Z,4.62
2019-01-10T10:53:29.476Z,4.65
2019-01-10T10:55:59.605Z,4.71
2019-01-10T10:58:29.808Z,4.77
2019-01-10T11:01:00.108Z,4.85
2019-01-10T11:03:30.291Z,4.91
2019-01-10T11:06:00.483Z,4.98
2019-01-10T11:08:30.652Z,5.03
2019-01-10T11:11:00.796Z,5.06
2019-01-10T11:13:30.935Z,5.09
2019-01-10T11:16:10.448Z,5.11
2019-01-10T11:18:36.349Z,5.16
2019-01-10T11:21:07.082Z,5.19
2019-01-10T11:23:37.234Z,5.26
2019-01-10T11:26:09.435Z,5.29
2019-01-10T11:28:39.621Z,5.34
2019-01-10T11:31:09.747Z,5.39
2019-01-10T11:33:39.939Z,5.44
2019-01-10T11:36:10.140Z,5.49
2019-01-10T11:38:40.338Z,5.54
2019-01-10T11:41:10.526Z,5.58
2019-01-10T11:43:40.685Z,5.61
2019-01-10T11:46:19.236Z,5.67
2019-01-10T11:48:42.733Z,5.73
2019-01-10T11:51:12.895Z,5.78
2019-01-10T11:53:43.197Z,5.81
2019-01-10T11:56:13.383Z,5.84
2019-01-10T11:58:43.575Z,5.86
2019-01-10T12:01:13.824Z,5.88
2019-01-10T12:03:44.131Z,5.93
2019-01-10T12:06:16.735Z,5.98
2019-01-10T12:08:46.871Z,6.03
2019-01-10T12:11:16.899Z,6.04
2019-01-10T12:13:47.037Z,6.07
2019-01-10T12:16:17.163Z,6.08
2019-01-10T12:18:47.442Z,6.10
2019-01-10T12:21:17.640Z,6.12
2019-01-10T12:23:47.669Z,6.15
2019-01-10T12:26:17.878Z,6.21
2019-01-10T12:28:47.997Z,6.27
2019-01-10T12:31:18.193Z,6.32
2019-01-10T12:33:48.393Z,6.36
2019-01-10T12:36:18.533Z,6.40
2019-01-10T12:38:48.578Z,6.46
2019-01-10T12:41:18.849Z,6.48
2019-01-10T12:43:49.058Z,6.55
2019-01-10T12:46:19.101Z,6.62
2019-01-10T12:48:49.232Z,6.68
2019-01-10T12:51:19.428Z,6.72
2019-01-10T12:53:49.583Z,6.75
2019-01-10T12:56:19.735Z,6.78
2019-01-10T12:58:49.934Z,6.81
2019-01-10T13:01:20.210Z,6.83
2019-01-10T13:03:50.321Z,6.83
2019-01-10T13:06:20.603Z,6.80
2019-01-10T13:08:50.739Z,6.79
2019-01-10T13:11:21.113Z,6.78
2019-01-10T13:13:51.161Z,6.77
2019-01-10T13:16:21.429Z,6.76
2019-01-10T13:18:51.552Z,6.74
2019-01-10T13:21:21.818Z,6.74
2019-01-10T13:23:51.943Z,6.73
2019-01-10T13:26:22.254Z,6.72
2019-01-10T13:28:52.300Z,6.67
2019-01-10T13:31:22.691Z,6.65
2019-01-10T13:33:52.874Z,6.66
2019-01-10T13:36:23.060Z,6.64
2019-01-10T13:38:54.893Z,6.63
2019-01-10T13:41:25.113Z,6.58
2019-01-10T13:43:55.296Z,6.52
2019-01-10T13:46:25.584Z,6.48
2019-01-10T13:48:55.776Z,6.45
2019-01-10T13:51:25.970Z,6.45
2019-01-10T13:53:56.157Z,6.40
2019-01-10T13:56:26.388Z,6.26
2019-01-10T13:58:56.580Z,6.11
2019-01-10T14:01:26.786Z,5.99
2019-01-10T14:03:57.102Z,5.91
2019-01-10T14:06:27.284Z,5.86
2019-01-10T14:08:57.551Z,5.80
2019-01-10T14:11:27.680Z,5.76
2019-01-10T14:13:57.723Z,5.74
2019-01-10T14:16:27.977Z,5.75
2019-01-10T14:18:58.081Z,5.76
2019-01-10T14:21:28.228Z,5.76
2019-01-10T14:23:58.267Z,5.72
2019-01-10T14:26:28.494Z,5.67
2019-01-10T14:28:58.697Z,5.61
2019-01-10T14:31:28.914Z,5.55
2019-01-10T14:33:59.028Z,5.46
2019-01-10T14:36:29.238Z,5.40
2019-01-10T14:38:59.337Z,5.33
2019-01-10T14:41:29.562Z,5.28
2019-01-10T14:43:59.741Z,5.21
2019-01-10T14:46:30.033Z,5.14
2019-01-10T14:49:00.090Z,5.06
2019-01-10T14:51:30.759Z,5.04
2019-01-10T14:54:00.844Z,5.00
2019-01-10T14:56:31.150Z,4.92
2019-01-10T14:59:01.273Z,4.84
2019-01-10T15:01:34.714Z,4.76
2019-01-10T15:04:05.001Z,4.71
2019-01-10T15:06:35.217Z,4.66
2019-01-10T15:09:10.468Z,4.63
2019-01-10T15:11:41.857Z,4.61
2019-01-10T15:14:16.160Z,4.60
2019-01-10T15:16:43.969Z,4.59
2019-01-10T15:19:14.203Z,4.62
2019-01-10T15:21:44.398Z,4.62
2019-01-10T15:24:14.503Z,4.65
2019-01-10T15:26:44.609Z,4.68
2019-01-10T15:29:14.731Z,4.70
2019-01-10T15:31:44.849Z,4.72
2019-01-10T15:34:15.713Z,4.69
2019-01-10T15:36:45.903Z,4.72
2019-01-10T15:39:16.113Z,4.73
2019-01-10T15:41:46.221Z,4.75
2019-01-10T15:44:16.327Z,4.76
2019-01-10T15:46:46.598Z,4.78
2019-01-10T15:49:16.646Z,4.79
2019-01-10T15:51:46.782Z,4.79
2019-01-10T15:54:16.870Z,4.79
2019-01-10T15:56:47.060Z,4.79
2019-01-10T15:59:17.227Z,4.79
2019-01-10T16:01:47.425Z,4.81
2019-01-10T16:04:17.588Z,4.80
2019-01-10T16:06:47.814Z,4.81
2019-01-10T16:09:17.958Z,4.80
2019-01-10T16:11:48.134Z,4.81
2019-01-10T16:14:18.240Z,4.82
2019-01-10T16:16:48.911Z,4.83
2019-01-10T16:19:22.061Z,4.84
2019-01-10T16:21:52.306Z,4.84
2019-01-10T16:24:22.556Z,4.83
2019-01-10T16:26:52.711Z,4.84
2019-01-10T16:29:22.849Z,4.84
2019-01-10T16:31:53.048Z,4.86
2019-01-10T16:34:23.113Z,4.87
2019-01-10T16:36:53.452Z,4.88
2019-01-10T16:39:23.575Z,4.88
2019-01-10T16:41:53.719Z,4.87
2019-01-10T16:44:23.857Z,4.88
2019-01-10T16:46:54.109Z,4.88
2019-01-10T16:49:24.365Z,4.89
2019-01-10T16:51:57.536Z,4.91
2019-01-10T16:54:27.819Z,4.92
2019-01-10T16:56:57.913Z,4.93
2019-01-10T16:59:29.780Z,4.92
2019-01-10T17:02:00.116Z,4.92
2019-01-10T17:04:30.537Z,4.91
2019-01-10T17:07:00.850Z,4.91
2019-01-10T17:09:31.043Z,4.92
2019-01-10T17:12:01.407Z,4.90
2019-01-10T17:14:31.544Z,4.89
2019-01-10T17:17:07.156Z,4.87
2019-01-10T17:19:37.420Z,4.86
2019-01-10T17:22:07.817Z,4.84
2019-01-10T17:24:38.049Z,4.83
2019-01-10T17:27:08.334Z,4.83
2019-01-10T17:29:38.442Z,4.81
2019-01-10T17:32:08.696Z,4.79
2019-01-10T17:34:40.486Z,4.78
2019-01-10T17:37:10.770Z,4.76
2019-01-10T17:39:40.956Z,4.76
2019-01-10T17:42:11.168Z,4.76
2019-01-10T17:44:41.409Z,4.75
2019-01-10T17:47:11.611Z,4.74
2019-01-10T17:49:41.831Z,4.72
2019-01-10T17:52:12.135Z,4.72
2019-01-10T17:54:42.179Z,4.73
2019-01-10T17:57:12.289Z,4.72
2019-01-10T17:59:42.564Z,4.73
2019-01-10T18:02:12.868Z,4.72
2019-01-10T18:04:43.043Z,4.73
2019-01-10T18:07:13.361Z,4.73
2019-01-10T18:09:43.608Z,4.71
2019-01-10T18:12:15.122Z,4.73
2019-01-10T18:14:45.458Z,4.75
2019-01-10T18:17:15.573Z,4.77
2019-01-10T18:19:45.938Z,4.77
2019-01-10T18:22:16.182Z,4.75
2019-01-10T18:24:46.384Z,4.74
2019-01-10T18:27:16.584Z,4.74
2019-01-10T18:29:50.995Z,4.74
2019-01-10T18:32:21.123Z,4.73
2019-01-10T18:34:51.636Z,4.71
2019-01-10T18:37:21.781Z,4.71
2019-01-10T18:39:52.002Z,4.70
2019-01-10T18:42:22.278Z,4.71
2019-01-10T18:44:52.516Z,4.72
2019-01-10T18:47:22.624Z,4.73
2019-01-10T18:49:52.859Z,4.73
2019-01-10T18:52:23.065Z,4.75
2019-01-10T18:55:00.013Z,4.74
2019-01-10T18:57:25.610Z,4.75
2019-01-10T18:59:55.832Z,4.77
2019-01-10T19:02:26.460Z,4.79
2019-01-10T19:04:56.582Z,4.78
2019-01-10T19:07:26.776Z,4.78
2019-01-10T19:09:57.060Z,4.77
2019-01-10T19:12:27.342Z,4.77
2019-01-10T19:14:57.504Z,4.77
2019-01-10T19:17:27.852Z,4.79
2019-01-10T19:19:58.027Z,4.83
2019-01-10T19:22:28.289Z,4.87
2019-01-10T19:24:58.553Z,4.88
2019-01-10T19:27:29.717Z,4.87
2019-01-10T19:30:00.178Z,4.86
2019-01-10T19:32:30.344Z,4.89
2019-01-10T19:35:00.566Z,4.91
2019-01-10T19:37:30.829Z,4.91
2019-01-10T19:40:01.118Z,4.88
2019-01-10T19:42:31.347Z,4.89
2019-01-10T19:45:01.602Z,4.90
2019-01-10T19:47:31.878Z,4.92
2019-01-10T19:50:02.298Z,4.92
2019-01-10T19:52:32.500Z,4.93
2019-01-10T19:55:02.720Z,4.91
2019-01-10T19:57:32.943Z,4.90
2019-01-10T20:00:03.244Z,4.90
2019-01-10T20:02:33.439Z,4.89
2019-01-10T20:05:03.759Z,4.90
2019-01-10T20:07:33.967Z,4.86
2019-01-10T20:10:04.831Z,4.88
2019-01-10T20:12:35.043Z,4.86
2019-01-10T20:15:05.917Z,4.86
2019-01-10T20:17:36.358Z,4.84
2019-01-10T20:20:14.860Z,4.83
2019-01-10T20:22:45.124Z,4.84
2019-01-10T20:25:15.356Z,4.83
2019-01-10T20:27:45.584Z,4.83
2019-01-10T20:30:16.661Z,4.81
2019-01-10T20:32:47.111Z,4.81
2019-01-10T20:35:17.290Z,4.79
2019-01-10T20:37:47.490Z,4.78
2019-01-10T20:40:18.011Z,4.79
2019-01-10T20:42:48.290Z,4.81
2019-01-10T20:45:18.670Z,4.81
2019-01-10T20:47:49.545Z,4.83
2019-01-10T20:50:19.812Z,4.82
2019-01-10T20:52:50.124Z,4.82
2019-01-10T20:55:20.431Z,4.83
2019-01-10T20:57:50.720Z,4.83
2019-01-10T21:00:22.222Z,4.82
2019-01-10T21:02:52.702Z,4.79
2019-01-10T21:05:22.914Z,4.78
2019-01-10T21:07:53.406Z,4.77
2019-01-10T21:10:23.933Z,4.77
2019-01-10T21:12:54.170Z,4.76
2019-01-10T21:15:28.035Z,4.77
2019-01-10T21:17:58.366Z,4.75
2019-01-10T21:20:28.593Z,4.76
2019-01-10T21:22:59.470Z,4.77
2019-01-10T21:25:29.769Z,4.78
2019-01-10T21:28:00.756Z,4.76
2019-01-10T21:30:31.551Z,4.76
2019-01-10T21:33:01.683Z,4.78
2019-01-10T21:35:31.889Z,4.76
2019-01-10T21:38:02.291Z,4.78
2019-01-10T21:40:32.657Z,4.78
2019-01-10T21:43:02.810Z,4.79
2019-01-10T21:45:33.133Z,4.79
2019-01-10T21:48:03.332Z,4.79
2019-01-10T21:50:33.852Z,4.78
2019-01-10T21:53:06.282Z,4.79
2019-01-10T21:55:36.624Z,4.82
2019-01-10T21:58:07.146Z,4.84
2019-01-10T22:00:37.472Z,4.86
2019-01-10T22:03:07.812Z,4.86
2019-01-10T22:05:38.220Z,4.88
2019-01-10T22:08:11.368Z,4.84
2019-01-10T22:10:41.696Z,4.83
2019-01-10T22:13:11.948Z,4.84
2019-01-10T22:15:42.275Z,4.84
2019-01-10T22:18:12.675Z,4.81
2019-01-10T22:20:43.064Z,4.82
2019-01-10T22:23:13.470Z,4.80
2019-01-10T22:26:03.051Z,4.82
2019-01-10T22:28:52.490Z,4.85
2019-01-10T22:32:02.418Z,4.85
2019-01-10T22:34:36.474Z,4.84
2019-01-10T22:37:32.294Z,4.87
2019-01-10T22:40:06.814Z,4.86
2019-01-10T22:44:17.445Z,4.89
2019-01-10T22:46:43.470Z,4.90
2019-01-10T22:49:50.123Z,4.85
2019-01-10T22:56:07.150Z,4.88
2019-01-10T22:59:08.441Z,4.88
2019-01-10T23:02:14.317Z,4.89
2019-01-10T23:04:42.008Z,4.90
2019-01-10T23:07:23.416Z,4.91
2019-01-10T23:09:55.367Z,4.92
2019-01-10T23:12:32.671Z,4.92
2019-01-10T23:15:29.553Z,4.93
2019-01-10T23:17:59.903Z,4.94
2019-01-10T23:20:30.249Z,4.93
2019-01-10T23:23:07.459Z,4.97
2019-01-10T23:25:37.778Z,4.97
2019-01-10T23:28:09.505Z,4.99
2019-01-10T23:30:57.820Z,5.01
2019-01-10T23:33:28.333Z,5.00
2019-01-10T23:36:04.096Z,4.98
2019-01-10T23:38:34.381Z,4.91
2019-01-10T23:41:04.701Z,5.05
2019-01-10T23:43:35.030Z,5.04
2019-01-10T23:46:05.574Z,5.09
2019-01-10T23:48:35.704Z,5.10
2019-01-10T23:51:06.982Z,5.09
2019-01-10T23:53:37.136Z,5.09
2019-01-10T23:56:07.180Z,5.09
2019-01-10T23:58:37.432Z,5.09
